Time;durP1;ratioP1;P1;durP2;ratioP2;P2;SDS_P1;SDS_P2;PMS_P1;PMS_P2;Temp;Humidity;BMP_temperature;BMP_pressure;BME280_temperature;BME280_humidity;BME280_pressure;Samples;Min_cycle;Max_cycle;Signal;HPM_P1;HPM_P2
2021/11/12 00:03:08;;;;;;;55.28;28.63;;;9.10;99.90;;;6.91;100.00;101216.97;5061572;28;20044;-85
2021/11/12 00:13:50;;;;;;;51.92;28.25;;;9.10;99.90;;;7.00;100.00;101207.97;5046168;28;20044;-86
2021/11/12 00:16:24;;;;;;;60.17;28.60;;;9.10;99.90;;;6.97;100.00;101194.75;5048560;28;20056;-86
2021/11/12 00:18:52;;;;;;;64.65;29.48;;;9.10;99.90;;;6.97;100.00;101197.44;5064190;28;20515;-86
2021/11/12 00:21:20;;;;;;;50.35;26.85;;;9.10;99.90;;;6.94;100.00;101192.31;5064648;28;20143;-85
2021/11/12 00:23:48;;;;;;;54.25;27.95;;;9.10;99.90;;;6.96;100.00;101192.16;5055847;28;20135;-86
2021/11/12 00:26:16;;;;;;;55.42;28.05;;;9.10;99.90;;;6.93;100.00;101185.22;5044875;28;20049;-86
2021/11/12 00:28:50;;;;;;;56.95;26.92;;;9.10;99.90;;;6.94;100.00;101186.91;5044383;28;20055;-86
2021/11/12 00:31:29;;;;;;;61.03;30.02;;;9.10;99.90;;;6.95;100.00;101188.63;5044740;28;20071;-86
2021/11/12 00:34:33;;;;;;;54.35;27.83;;;9.10;99.90;;;6.90;100.00;101185.47;5044718;28;20474;-85
2021/11/12 00:37:06;;;;;;;53.78;28.00;;;9.10;99.90;;;6.89;100.00;101188.31;5044724;28;20076;-86
2021/11/12 00:39:38;;;;;;;57.63;28.58;;;9.10;99.90;;;6.90;100.00;101181.94;5047984;28;20041;-85
2021/11/12 00:42:11;;;;;;;55.15;27.88;;;9.10;99.90;;;6.95;100.00;101185.03;5064664;28;20048;-85
2021/11/12 00:44:42;;;;;;;53.38;27.63;;;9.10;99.90;;;6.95;100.00;101196.72;5064952;28;20053;-86
2021/11/12 00:47:20;;;;;;;53.90;26.92;;;9.10;99.90;;;6.98;100.00;101199.13;5065000;28;20052;-85
2021/11/12 00:50:04;;;;;;;45.92;25.77;;;9.10;99.90;;;7.04;100.00;101195.00;5064645;28;20048;-86
2021/11/12 00:52:43;;;;;;;51.75;26.23;;;9.10;99.90;;;7.01;100.00;101188.03;5064919;28;20052;-85
2021/11/12 00:55:11;;;;;;;57.92;28.13;;;9.10;99.90;;;7.04;100.00;101193.16;5064713;28;20053;-86
2021/11/12 00:57:39;;;;;;;57.88;26.48;;;9.10;99.90;;;7.03;100.00;101183.31;5063344;28;20841;-86
2021/11/12 01:00:10;;;;;;;55.60;27.85;;;9.10;99.90;;;7.09;100.00;101190.00;5064666;28;20056;-86
2021/11/12 01:02:39;;;;;;;;;;;9.10;99.90;;;7.10;100.00;101193.56;5065227;28;20091;-85
2021/11/12 01:05:09;;;;;;;53.75;26.48;;;9.10;99.90;;;7.08;100.00;101177.47;5074088;28;19978;-91
2021/11/12 01:07:37;;;;;;;49.05;26.10;;;9.10;99.90;;;7.05;100.00;101183.19;5069525;28;20794;-89
2021/11/12 01:10:09;;;;;;;49.72;25.35;;;9.10;99.90;;;7.08;100.00;101176.63;5069202;28;20161;-85
2021/11/12 01:12:38;;;;;;;39.53;20.30;;;9.10;99.90;;;7.11;100.00;101177.19;5081717;28;20049;-85
2021/11/12 01:15:10;;;;;;;36.25;20.00;;;9.10;99.90;;;7.11;100.00;101176.34;5077642;28;20056;-85
2021/11/12 01:17:39;;;;;;;42.08;21.02;;;9.10;99.90;;;7.12;100.00;101172.63;5071524;28;20113;-85
2021/11/12 01:20:08;;;;;;;42.90;22.23;;;9.20;99.90;;;7.13;100.00;101175.19;5070384;28;20117;-86
2021/11/12 01:22:36;;;;;;;46.63;22.40;;;9.20;99.90;;;7.16;100.00;101174.03;5084233;28;20056;-85
2021/11/12 01:25:06;;;;;;;46.10;23.27;;;9.20;99.90;;;7.17;100.00;101176.59;5067020;28;20135;-85
2021/11/12 01:27:34;;;;;;;41.57;21.67;;;9.20;99.90;;;7.16;100.00;101164.06;5064236;28;20048;-85
2021/11/12 01:30:01;;;;;;;40.20;20.63;;;9.20;99.90;;;7.17;100.00;101162.22;5068175;28;20286;-85
2021/11/12 01:32:30;;;;;;;49.72;23.42;;;9.20;99.90;;;7.16;100.00;101160.50;5058898;28;20056;-85
2021/11/12 01:35:00;;;;;;;43.17;22.33;;;9.20;99.90;;;7.12;100.00;101165.38;5066659;28;20053;-86
2021/11/12 01:37:30;;;;;;;41.80;22.58;;;9.20;99.90;;;7.10;100.00;101152.97;5065294;28;20058;-85
2021/11/12 01:40:01;;;;;;;40.67;20.75;;;9.20;99.90;;;7.09;100.00;101153.97;5066814;28;20048;-85
2021/11/12 01:42:59;;;;;;;38.45;21.17;;;9.20;99.90;;;7.07;100.00;101150.56;5066813;28;20144;-85
2021/11/12 01:45:39;;;;;;;39.15;20.98;;;9.20;99.90;;;7.00;100.00;101148.44;5068146;28;20051;-86
2021/11/12 01:51:01;;;;;;;32.83;17.33;;;9.20;99.90;;;7.02;100.00;101129.34;5063458;28;20060;-85
2021/11/12 01:53:33;;;;;;;32.90;17.05;;;9.20;99.90;;;7.00;100.00;101129.47;5066312;28;20059;-86
2021/11/12 01:56:27;;;;;;;24.58;14.85;;;9.20;99.90;;;7.02;100.00;101119.34;5067089;28;20055;-85
2021/11/12 01:59:12;;;;;;;29.50;14.32;;;9.20;99.90;;;7.00;100.00;101121.38;5066777;28;20064;-85
2021/11/12 02:01:46;;;;;;;27.25;14.05;;;9.20;99.90;;;6.96;100.00;101113.69;5067734;28;20374;-86
2021/11/12 02:04:16;;;;;;;25.17;12.80;;;9.20;99.90;;;6.94;100.00;101110.28;5056249;28;20580;-85
2021/11/12 02:06:46;;;;;;;30.80;13.95;;;9.10;99.90;;;6.87;100.00;101119.97;5066256;28;20055;-86
2021/11/12 02:09:18;;;;;;;27.45;14.60;;;9.10;99.90;;;6.83;100.00;101106.75;5065456;28;20102;-86
2021/11/12 02:11:48;;;;;;;28.63;14.93;;;9.10;99.90;;;6.81;100.00;101105.19;5066278;28;20076;-86
2021/11/12 02:14:18;;;;;;;37.63;16.45;;;9.10;99.90;;;6.73;100.00;101108.63;5067596;28;20078;-85
2021/11/12 02:16:56;;;;;;;27.38;14.02;;;9.00;99.90;;;6.68;100.00;101101.94;5066141;28;20063;-85
2021/11/12 02:19:24;;;;;;;24.55;12.82;;;9.10;99.90;;;6.63;100.00;101103.22;5064239;28;20051;-85
2021/11/12 02:22:05;;;;;;;22.55;12.35;;;9.00;99.90;;;6.68;100.00;101105.47;5082944;28;20398;-85
2021/11/12 02:24:34;;;;;;;24.17;11.85;;;9.00;99.90;;;6.58;100.00;101105.50;5066201;28;20048;-85
2021/11/12 02:27:03;;;;;;;19.77;11.00;;;9.00;99.90;;;6.56;100.00;101095.84;5066119;28;20059;-85
2021/11/12 02:29:31;;;;;;;22.27;11.82;;;9.00;99.90;;;6.56;100.00;101104.78;5066797;28;20429;-85
2021/11/12 02:31:59;;;;;;;20.02;11.90;;;8.90;99.90;;;6.56;100.00;101093.97;5067141;28;20146;-85
2021/11/12 02:34:26;;;;;;;20.10;11.55;;;8.90;99.90;;;6.50;100.00;101094.56;5063906;28;20076;-86
2021/11/12 02:36:55;;;;;;;19.10;11.18;;;8.90;99.90;;;6.52;100.00;101080.91;5067202;28;20578;-85
2021/11/12 02:39:25;;;;;;;20.77;11.25;;;8.80;99.90;;;6.48;100.00;101093.84;5065181;28;20065;-85
2021/11/12 02:41:52;;;;;;;19.02;10.63;;;8.90;99.90;;;6.39;100.00;101094.72;5065697;28;20409;-85
2021/11/12 02:44:20;;;;;;;22.50;10.85;;;8.80;99.90;;;6.31;100.00;101092.72;5065322;28;20163;-84
2021/11/12 02:46:48;;;;;;;23.05;11.25;;;8.80;99.90;;;6.23;100.00;101096.13;5065692;28;20422;-85
2021/11/12 02:49:15;;;;;;;20.42;10.73;;;8.70;99.90;;;6.17;100.00;101101.25;5064881;28;20663;-85
2021/11/12 02:51:43;;;;;;;22.98;11.95;;;8.70;99.90;;;6.12;100.00;101093.56;5065280;28;20056;-85
2021/11/12 02:54:13;;;;;;;25.40;10.90;;;8.70;99.90;;;6.05;100.00;101087.00;5065576;28;20469;-85
2021/11/12 02:56:41;;;;;;;19.52;11.10;;;8.70;99.90;;;5.94;100.00;101079.00;5065395;28;20052;-85
2021/11/12 02:59:12;;;;;;;19.63;10.52;;;8.60;99.90;;;5.85;100.00;101081.56;5065075;28;20128;-85
2021/11/12 03:01:44;;;;;;;19.10;10.25;;;8.60;99.90;;;5.81;100.00;101072.03;5065215;28;20147;-85
2021/11/12 03:04:13;;;;;;;19.67;10.32;;;8.50;99.90;;;5.80;100.00;101067.63;5065279;28;20051;-85
2021/11/12 03:06:41;;;;;;;22.58;10.18;;;8.50;99.90;;;5.67;100.00;101067.03;5065372;28;20591;-86
2021/11/12 03:09:11;;;;;;;18.30;10.50;;;8.40;99.90;;;5.63;100.00;101057.50;5064754;28;20119;-86
2021/11/12 03:11:43;;;;;;;15.98;10.10;;;8.40;99.90;;;5.54;100.00;101055.63;5066425;28;20139;-85
2021/11/12 03:14:12;;;;;;;19.25;10.00;;;8.30;99.90;;;5.48;100.00;101060.59;5066384;28;20048;-85
2021/11/12 03:16:40;;;;;;;19.73;10.20;;;8.30;99.90;;;5.43;100.00;101057.47;5064995;28;20109;-85
2021/11/12 03:19:10;;;;;;;19.08;9.75;;;8.20;99.90;;;5.33;100.00;101059.28;5064337;28;20528;-85
2021/11/12 03:21:40;;;;;;;19.13;10.43;;;8.20;99.90;;;5.24;100.00;101062.81;5065030;28;20444;-85
2021/11/12 03:24:12;;;;;;;20.73;10.63;;;8.10;99.90;;;5.21;100.00;101063.06;5055790;28;20060;-85
2021/11/12 03:26:43;;;;;;;17.92;10.15;;;8.10;99.90;;;5.18;100.00;101057.94;5065782;28;20048;-85
2021/11/12 03:29:27;;;;;;;22.23;10.30;;;8.00;99.90;;;5.08;100.00;101053.38;5064296;28;20500;-85
2021/11/12 04:02:19;;;;;;;20.38;10.93;;;7.50;99.90;;;4.56;100.00;101044.44;5062504;28;20118;-85
2021/11/12 04:04:54;;;;;;;19.17;10.15;;;7.40;99.80;;;4.52;100.00;101048.38;5065673;28;20533;-85
2021/11/12 04:07:47;;;;;;;19.38;10.40;;;7.40;99.90;;;4.44;100.00;101049.03;5064283;28;20143;-85
2021/11/12 04:18:40;;;;;;;19.23;10.32;;;7.20;99.60;;;4.30;100.00;101039.47;5057476;28;20042;-85
2021/11/12 04:40:48;;;;;;;16.75;9.85;;;6.80;99.40;;;4.04;100.00;101030.88;5068175;28;20074;-85
2021/11/12 05:11:18;;;;;;;21.33;10.93;;;6.40;98.90;;;3.52;100.00;101009.19;5058823;28;20052;-85
2021/11/12 05:14:06;;;;;;;18.25;10.57;;;6.40;98.90;;;3.47;100.00;101005.16;5069081;28;20044;-91
2021/11/12 05:44:10;;;;;;;36.53;15.93;;;6.50;99.90;;;4.15;100.00;100965.34;5065691;28;20116;-88
2021/11/12 05:46:41;;;;;;;29.92;16.35;;;6.60;99.90;;;3.98;100.00;100957.81;5067561;28;20074;-89
2021/11/12 05:52:13;;;;;;;26.33;14.82;;;6.60;99.90;;;3.96;100.00;100949.91;5047168;28;20056;-88
2021/11/12 05:57:33;;;;;;;30.15;16.10;;;6.60;99.90;;;3.92;100.00;100933.16;5044750;28;20094;-89
2021/11/12 06:00:00;;;;;;;31.60;17.17;;;6.50;99.90;;;3.94;100.00;100930.34;5066833;28;20536;-89
2021/11/12 06:02:28;;;;;;;31.70;16.55;;;6.50;99.90;;;3.84;100.00;100924.84;5066647;28;20048;-89
2021/11/12 06:04:55;;;;;;;27.15;15.43;;;6.50;99.90;;;3.86;100.00;100927.41;5066617;28;20036;-89
2021/11/12 06:07:22;;;;;;;30.77;16.25;;;6.50;99.90;;;3.86;100.00;100925.56;5066674;28;20083;-88
2021/11/12 06:09:51;;;;;;;32.80;16.35;;;6.50;99.90;;;3.84;100.00;100924.84;5066704;28;20459;-86
2021/11/12 06:12:19;;;;;;;29.77;15.48;;;6.50;99.90;;;3.83;100.00;100922.31;5066294;28;20135;-86
2021/11/12 06:14:46;;;;;;;25.92;14.43;;;6.50;99.90;;;3.78;100.00;100911.94;5066344;28;20417;-85
2021/11/12 06:17:13;;;;;;;29.25;14.73;;;6.50;99.90;;;3.74;100.00;100913.19;5064155;28;20469;-86
2021/11/12 06:19:41;;;;;;;28.88;15.20;;;6.50;99.90;;;3.74;100.00;100905.09;5065148;28;20122;-86
2021/11/12 06:22:08;;;;;;;26.73;14.82;;;6.40;99.90;;;3.69;100.00;100899.25;5066472;28;20147;-85
2021/11/12 06:24:36;;;;;;;25.52;14.02;;;6.40;99.90;;;3.58;100.00;100891.22;5065175;28;20053;-91
2021/11/12 06:27:06;;;;;;;28.52;15.80;;;6.40;99.90;;;3.53;100.00;100881.72;5066688;28;20139;-86
2021/11/12 06:29:34;;;;;;;34.40;15.68;;;6.30;99.90;;;3.53;100.00;100883.56;5065840;28;20076;-85
2021/11/12 06:32:02;;;;;;;27.42;15.13;;;6.30;99.90;;;3.55;100.00;100880.75;5066004;28;20102;-86
2021/11/12 06:34:30;;;;;;;29.67;15.95;;;6.30;99.90;;;3.59;100.00;100882.19;5065254;28;20131;-85
2021/11/12 06:36:57;;;;;;;31.10;15.40;;;6.30;99.90;;;3.62;100.00;100877.41;5067916;28;20417;-85
2021/11/12 06:39:24;;;;;;;30.08;15.93;;;6.30;99.90;;;3.52;100.00;100877.34;5067115;28;20059;-86
2021/11/12 06:42:01;;;;;;;30.13;15.73;;;6.30;99.90;;;3.56;100.00;100875.25;5061810;28;20128;-85
2021/11/12 06:44:51;;;;;;;30.13;15.63;;;6.20;99.90;;;3.56;100.00;100866.28;5052147;28;20297;-86
2021/11/12 06:50:12;;;;;;;34.28;16.15;;;6.20;99.90;;;3.51;100.00;100854.09;5065798;28;20052;-86
2021/11/12 06:52:42;;;;;;;30.17;15.02;;;6.20;99.90;;;3.52;100.00;100853.13;5065805;28;20592;-85
2021/11/12 06:55:10;;;;;;;37.25;17.90;;;6.20;99.90;;;3.53;100.00;100841.34;5065555;28;20059;-85
2021/11/12 06:57:39;;;;;;;34.13;15.82;;;6.20;99.90;;;3.55;100.00;100840.38;5065371;28;20036;-85
2021/11/12 07:00:12;;;;;;;37.45;18.27;;;6.10;99.90;;;3.62;100.00;100850.50;5066896;28;20060;-85
2021/11/12 07:02:40;;;;;;;31.17;16.98;;;6.10;99.90;;;3.65;100.00;100844.81;5064811;28;20058;-85
2021/11/12 07:05:09;;;;;;;30.90;17.77;;;6.20;99.90;;;3.67;100.00;100836.63;5065145;28;20413;-85
2021/11/12 07:07:37;;;;;;;33.00;17.10;;;6.20;99.90;;;3.63;100.00;100833.34;5064746;28;20628;-85
2021/11/12 07:10:06;;;;;;;32.58;16.92;;;6.20;99.90;;;3.65;100.00;100827.81;5065286;28;20048;-85
2021/11/12 07:12:33;;;;;;;31.00;16.73;;;6.20;99.90;;;3.60;100.00;100832.75;5068625;28;20047;-86
2021/11/12 07:15:01;;;;;;;37.88;17.30;;;6.20;99.90;;;3.59;100.00;100839.13;5079972;28;20044;-86
2021/11/12 07:17:30;;;;;;;33.42;16.23;;;6.20;99.90;;;3.55;100.00;100843.06;5074101;28;20071;-86
2021/11/12 07:19:58;;;;;;;28.42;15.05;;;6.10;99.90;;;3.56;100.00;100844.75;5069575;28;20118;-85
2021/11/12 07:22:25;;;;;;;34.03;17.05;;;6.10;99.90;;;3.58;100.00;100838.28;5066887;28;20058;-85
2021/11/12 07:24:52;;;;;;;28.90;17.02;;;6.10;99.90;;;3.63;100.00;100833.34;5064757;28;20051;-86
2021/11/12 07:27:19;;;;;;;31.00;16.77;;;6.10;99.90;;;3.67;100.00;100837.47;5064871;28;20543;-86
2021/11/12 07:29:48;;;;;;;36.80;18.17;;;6.10;99.90;;;3.75;100.00;100842.22;5064839;28;20112;-85
2021/11/12 07:32:17;;;;;;;38.15;18.52;;;6.20;99.90;;;3.85;100.00;100835.03;5065271;28;20497;-86
2021/11/12 07:34:49;;;;;;;37.00;18.27;;;6.20;99.90;;;3.93;100.00;100823.59;5066227;28;20098;-90
2021/11/12 07:37:16;;;;;;;36.05;19.17;;;6.20;99.90;;;4.02;100.00;100813.88;5066798;28;20051;-88
2021/11/12 07:39:52;;;;;;;41.85;19.95;;;6.20;99.90;;;4.11;100.00;100797.75;5066641;28;20041;-88
2021/11/12 07:42:28;;;;;;;36.33;19.10;;;6.30;99.90;;;4.16;100.00;100789.25;5068332;28;20109;-86
2021/11/12 07:45:18;;;;;;;43.97;19.45;;;6.30;99.90;;;4.20;100.00;100789.84;5076600;28;20040;-85
2021/11/12 07:47:46;;;;;;;37.42;20.00;;;6.40;99.90;;;4.24;100.00;100802.03;5072438;28;20067;-85
2021/11/12 07:50:14;;;;;;;36.13;20.08;;;6.40;99.90;;;4.27;100.00;100813.41;5066225;28;20507;-86
2021/11/12 07:52:42;;;;;;;39.35;19.92;;;6.50;99.90;;;4.26;100.00;100830.53;5064748;28;20055;-86
2021/11/12 07:55:11;;;;;;;34.35;19.55;;;6.50;99.90;;;4.22;100.00;100836.34;5064751;28;20041;-86
2021/11/12 07:57:38;;;;;;;35.38;19.08;;;6.60;99.90;;;4.29;100.00;100841.06;5064407;28;20423;-86
2021/11/12 08:00:08;;;;;;;37.33;20.42;;;6.60;99.90;;;4.34;100.00;100839.78;5064600;28;20052;-85
2021/11/12 08:02:42;;;;;;;39.22;20.25;;;6.60;99.90;;;4.39;100.00;100834.84;5064827;28;20052;-86
2021/11/12 08:05:15;;;;;;;34.75;19.13;;;6.70;99.90;;;4.38;100.00;100827.75;5064720;28;20091;-87
2021/11/12 08:07:45;;;;;;;41.22;21.00;;;6.70;99.90;;;4.43;100.00;100831.72;5064618;28;20075;-86
2021/11/12 08:10:17;;;;;;;38.65;20.17;;;6.70;99.90;;;4.47;100.00;100824.22;5066482;28;20044;-85
2021/11/12 08:12:51;;;;;;;30.88;18.73;;;6.80;99.90;;;4.52;100.00;100824.69;5065058;28;20646;-86
2021/11/12 08:15:43;;;;;;;34.67;19.55;;;6.80;99.90;;;4.48;100.00;100809.78;5068725;28;20044;-86
2021/11/12 08:18:22;;;;;;;40.00;20.23;;;6.80;99.90;;;4.57;100.00;100802.69;5064747;28;20060;-86
2021/11/12 08:20:55;;;;;;;34.63;19.95;;;6.80;99.90;;;4.60;100.00;100814.06;5064736;28;20052;-86
2021/11/12 08:23:29;;;;;;;41.42;20.67;;;6.80;99.90;;;4.65;100.00;100816.34;5066758;28;20056;-86
2021/11/12 08:26:08;;;;;;;37.65;20.00;;;6.90;99.90;;;4.69;100.00;100807.84;5064470;28;20067;-86
2021/11/12 08:28:54;;;;;;;40.35;20.77;;;6.90;99.90;;;4.80;100.00;100822.19;5064804;28;20048;-86
2021/11/12 08:31:32;;;;;;;43.00;21.25;;;6.90;99.90;;;4.96;100.00;100819.78;5064398;28;20041;-85
2021/11/12 08:34:01;;;;;;;41.58;21.80;;;7.00;99.90;;;5.12;100.00;100823.78;5064450;28;20049;-87
2021/11/12 08:39:25;;;;;;;34.92;20.77;;;7.10;99.90;;;5.45;100.00;100812.53;5063795;28;20560;-85
2021/11/12 08:41:56;;;;;;;41.10;21.35;;;7.20;99.90;;;5.56;100.00;100816.06;5064404;28;20864;-84
2021/11/12 08:44:30;;;;;;;38.45;22.05;;;7.30;99.90;;;5.64;100.00;100819.75;5065675;28;20572;-85
2021/11/12 08:47:05;;;;;;;37.38;21.70;;;7.30;99.90;;;5.79;100.00;100833.66;5058049;28;20057;-85
2021/11/12 08:49:35;;;;;;;38.42;20.58;;;7.40;99.90;;;5.84;100.00;100841.31;5060798;28;20410;-84
2021/11/12 08:52:06;;;;;;;34.97;20.13;;;7.50;99.90;;;5.92;100.00;100843.28;5077107;28;20045;-85
2021/11/12 08:54:36;;;;;;;35.15;20.92;;;7.50;99.90;;;5.83;100.00;100836.91;5056740;28;20051;-85
2021/11/12 08:57:09;;;;;;;35.15;21.83;;;7.60;99.90;;;5.81;100.00;100826.25;5083837;28;20535;-85
2021/11/12 08:59:38;;;;;;;38.90;21.63;;;7.60;99.90;;;5.80;100.00;100834.50;5071897;28;20572;-84
2021/11/12 09:02:08;;;;;;;39.70;22.70;;;7.70;99.90;;;5.83;100.00;100837.75;5065386;28;20044;-85
2021/11/12 09:04:36;;;;;;;43.70;24.70;;;7.70;99.90;;;5.89;100.00;100844.44;5066820;28;20055;-85
2021/11/12 09:07:04;;;;;;;39.45;21.92;;;7.70;99.90;;;5.88;100.00;100843.59;5063859;28;20114;-84
2021/11/12 09:09:32;;;;;;;33.58;20.02;;;7.70;99.90;;;5.90;100.00;100845.28;5063817;28;20513;-84
2021/11/12 09:12:00;;;;;;;37.13;20.23;;;7.80;99.90;;;5.88;100.00;100845.41;5063753;28;20144;-85
2021/11/12 09:14:29;;;;;;;38.08;20.65;;;7.80;99.90;;;5.91;100.00;100836.19;5063873;28;20079;-86
2021/11/12 09:17:04;;;;;;;36.78;20.45;;;7.80;99.90;;;5.92;100.00;100835.19;5065143;28;20055;-85
2021/11/12 09:19:32;;;;;;;36.03;20.13;;;7.80;99.90;;;6.00;100.00;100838.91;5080617;28;20521;-84
2021/11/12 09:22:00;;;;;;;36.92;20.27;;;7.90;99.90;;;6.06;100.00;100841.00;5065104;28;20068;-86
2021/11/12 09:24:27;;;;;;;37.75;20.50;;;7.90;99.90;;;6.09;100.00;100839.84;5064198;28;20068;-85
2021/11/12 09:26:55;;;;;;;36.85;19.50;;;7.90;99.90;;;6.15;100.00;100833.00;5067539;28;20831;-85
2021/11/12 09:29:23;;;;;;;36.05;20.00;;;7.90;99.90;;;6.15;100.00;100833.88;5067058;28;20048;-86
2021/11/12 09:31:51;;;;;;;34.88;19.15;;;7.90;99.90;;;6.17;100.00;100826.47;5068422;28;20048;-85
2021/11/12 09:34:18;;;;;;;38.55;20.88;;;7.90;99.90;;;6.32;100.00;100824.13;5053886;28;20052;-85
2021/11/12 09:36:46;;;;;;;36.03;19.70;;;8.00;99.90;;;6.36;100.00;100821.94;5066625;28;20072;-85
2021/11/12 09:39:13;;;;;;;36.90;20.02;;;8.00;99.90;;;6.37;100.00;100826.38;5066561;28;20047;-85
2021/11/12 09:41:41;;;;;;;36.90;19.58;;;8.00;99.90;;;6.37;100.00;100821.81;5059701;28;20060;-85
2021/11/12 09:44:08;;;;;;;39.33;19.85;;;8.00;99.90;;;6.25;100.00;100810.34;5068174;28;20044;-85
2021/11/12 09:46:37;;;;;;;41.58;20.30;;;8.10;99.90;;;6.20;100.00;100811.78;5066313;28;20051;-85
2021/11/12 09:49:06;;;;;;;34.72;19.63;;;8.10;99.90;;;6.11;100.00;100802.75;5067918;28;20048;-87
2021/11/12 09:51:33;;;;;;;34.42;19.25;;;8.10;99.90;;;6.06;100.00;100791.53;5065142;28;20107;-87
2021/11/12 09:54:01;;;;;;;34.50;20.15;;;8.10;99.90;;;6.01;100.00;100789.25;5065524;28;20060;-88
2021/11/12 09:56:28;;;;;;;34.53;19.33;;;8.00;99.90;;;5.97;100.00;100778.91;5065352;28;20049;-89
2021/11/12 09:58:56;;;;;;;35.72;19.83;;;8.00;99.90;;;5.93;100.00;100772.91;5065299;28;20053;-87
2021/11/12 10:01:28;;;;;;;39.08;20.50;;;8.00;99.90;;;5.90;100.00;100773.19;5060441;28;20835;-88
2021/11/12 10:04:03;;;;;;;34.38;19.20;;;8.00;99.90;;;5.90;100.00;100756.97;5078857;28;20048;-88
2021/11/12 10:06:34;;;;;;;40.72;21.05;;;8.00;99.90;;;5.90;100.00;100750.75;5066195;28;20052;-87
2021/11/12 10:09:01;;;;;;;39.42;21.38;;;8.00;99.90;;;5.92;100.00;100746.03;5065323;28;20117;-88
2021/11/12 10:11:32;;;;;;;37.60;20.80;;;7.90;99.90;;;5.92;100.00;100740.63;5062281;28;20154;-87
2021/11/12 10:14:01;;;;;;;38.87;22.50;;;7.90;99.90;;;5.93;100.00;100734.25;5056508;28;20045;-88
2021/11/12 10:16:39;;;;;;;40.92;22.33;;;7.90;99.90;;;5.93;100.00;100734.25;5064269;28;20041;-88
2021/11/12 10:19:13;;;;;;;40.55;22.63;;;7.90;99.90;;;5.92;100.00;100740.63;5060422;28;20057;-87
2021/11/12 10:21:44;;;;;;;39.45;22.00;;;8.00;99.90;;;5.97;100.00;100732.97;5062725;28;20060;-88
2021/11/12 10:24:17;;;;;;;35.33;19.85;;;8.00;99.90;;;6.02;100.00;100736.09;5065703;28;20048;-86
2021/11/12 10:26:49;;;;;;;38.75;19.95;;;8.00;99.90;;;6.06;100.00;100734.78;5048615;28;20426;-85
2021/11/12 10:29:21;;;;;;;38.97;19.77;;;8.00;99.90;;;6.10;100.00;100733.47;5035986;28;20045;-85
2021/11/12 10:31:53;;;;;;;36.67;20.15;;;8.00;99.20;;;6.16;100.00;100726.63;5051894;28;20099;-85
2021/11/12 10:34:25;;;;;;;31.75;18.73;;;8.00;99.70;;;6.16;100.00;100721.22;5035069;28;20108;-85
2021/11/12 10:37:04;;;;;;;30.25;17.55;;;8.00;99.70;;;6.19;100.00;100726.34;5053758;28;20481;-84
2021/11/12 10:39:35;;;;;;;36.22;18.83;;;8.10;99.90;;;6.20;100.00;100738.81;5036665;28;20052;-85
2021/11/12 10:42:06;;;;;;;35.42;18.80;;;8.10;99.50;;;6.20;100.00;100723.47;5037624;28;20045;-85
2021/11/12 10:44:42;;;;;;;35.10;19.73;;;8.10;99.60;;;6.24;100.00;100707.78;5053999;28;20044;-85
2021/11/12 10:47:10;;;;;;;33.90;18.95;;;8.20;99.70;;;6.28;100.00;100695.66;5053969;28;20060;-85
2021/11/12 10:49:41;;;;;;;37.95;19.13;;;8.20;99.70;;;6.32;100.00;100680.00;5041900;28;20049;-85
2021/11/12 10:52:13;;;;;;;32.00;18.45;;;8.30;99.50;;;6.38;100.00;100703.75;5038902;28;20625;-85
2021/11/12 10:54:52;;;;;;;35.40;19.02;;;8.30;99.60;;;6.38;100.00;100688.38;5053900;28;20140;-85
2021/11/12 10:57:23;;;;;;;31.63;18.17;;;8.30;99.40;;;6.40;100.00;100682.81;5032247;28;20268;-86
2021/11/12 11:00:13;;;;;;;36.25;19.20;;;8.30;99.40;;;6.44;100.00;100666.13;5046327;28;20456;-86
2021/11/12 11:02:43;;;;;;;31.58;18.50;;;8.40;99.30;;;6.45;100.00;100666.97;5045378;28;20103;-86
2021/11/12 11:05:15;;;;;;;34.85;19.15;;;8.40;99.30;;;6.51;100.00;100668.19;5057235;28;20045;-86
2021/11/12 11:07:47;;;;;;;35.63;19.23;;;8.40;99.40;;;6.55;100.00;100666.88;5065008;28;20048;-86
2021/11/12 11:10:29;;;;;;;35.20;19.55;;;8.50;99.20;;;6.55;100.00;100658.75;5065166;28;20056;-86
2021/11/12 11:13:01;;;;;;;34.38;18.52;;;8.50;99.30;;;6.55;100.00;100658.75;5064858;28;20045;-86
2021/11/12 11:15:32;;;;;;;33.83;19.30;;;8.50;99.20;;;6.59;100.00;100665.59;5064592;28;20048;-85
2021/11/12 11:18:24;;;;;;;33.25;18.58;;;8.50;99.10;;;6.62;100.00;100671.50;5061081;28;20064;-86
2021/11/12 11:20:59;;;;;;;31.42;17.50;;;8.50;99.00;;;6.64;100.00;100650.59;5046352;28;20517;-86
2021/11/12 11:23:28;;;;;;;33.00;18.80;;;8.60;99.00;;;6.65;100.00;100660.41;5059897;28;20138;-86
2021/11/12 11:26:02;;;;;;;31.88;18.30;;;8.60;98.90;;;6.70;100.00;100669.88;5064732;28;20135;-85
2021/11/12 11:28:32;;;;;;;32.10;17.58;;;8.60;98.70;;;6.72;100.00;100667.88;5064218;28;20045;-85
2021/11/12 11:31:01;;;;;;;35.03;19.13;;;8.60;98.70;;;6.77;100.00;100666.41;5059103;28;20078;-86
2021/11/12 11:33:29;;;;;;;37.20;18.77;;;8.70;98.80;;;6.82;100.00;100653.28;5064098;28;20145;-86
2021/11/12 11:36:01;;;;;;;34.78;19.73;;;8.70;98.60;;;6.83;100.00;100654.09;5064829;28;20052;-86
2021/11/12 11:38:32;;;;;;;34.38;19.25;;;8.70;98.50;;;6.85;100.00;100654.81;5048114;28;20083;-86
2021/11/12 11:41:04;;;;;;;32.65;18.05;;;8.70;98.40;;;6.87;100.00;100649.25;5064109;28;20044;-85
2021/11/12 11:43:32;;;;;;;32.40;17.95;;;8.80;98.50;;;6.92;100.00;100649.63;5061927;28;20037;-86
2021/11/12 11:46:04;;;;;;;31.77;17.40;;;8.80;97.80;;;6.94;100.00;100645.75;5058044;28;20136;-86
2021/11/12 11:48:37;;;;;;;;;;;8.80;98.30;;;6.97;100.00;100644.59;5067008;28;20074;-85
2021/11/12 11:51:07;;;;;;;32.78;17.33;;;8.80;98.20;;;6.98;100.00;100639.00;5062919;28;19963;-87
2021/11/12 11:53:41;;;;;;;32.30;17.60;;;8.80;98.20;;;6.98;100.00;100625.47;5064518;28;20118;-85
2021/11/12 11:56:29;;;;;;;31.15;18.33;;;8.90;98.30;;;6.99;100.00;100620.94;5064449;28;20098;-85
2021/11/12 11:58:59;;;;;;;29.55;17.85;;;8.90;98.20;;;7.00;100.00;100618.03;5062423;28;20048;-85
2021/11/12 12:01:47;;;;;;;32.22;18.05;;;8.90;98.10;;;7.05;100.00;100618.44;5062011;28;20042;-86
2021/11/12 12:04:38;;;;;;;30.35;18.02;;;8.90;98.00;;;7.09;100.00;100599.19;5065497;28;20052;-87
2021/11/12 12:07:29;;;;;;;31.23;17.73;;;9.00;97.90;;;7.11;100.00;100602.56;5068701;28;20063;-90
2021/11/12 12:10:19;;;;;;;34.35;18.77;;;9.00;97.90;;;7.11;100.00;100587.16;5064463;28;20048;-88
2021/11/12 12:12:59;;;;;;;26.65;16.48;;;9.00;97.80;;;7.11;100.00;100592.59;5067939;28;20517;-85
2021/11/12 12:15:42;;;;;;;32.20;17.48;;;9.10;98.00;;;7.14;100.00;100588.69;5064510;28;20072;-89
2021/11/12 12:18:24;;;;;;;26.30;16.17;;;9.10;97.90;;;7.16;100.00;100582.13;5063602;28;20048;-89
2021/11/12 12:33:29;;;;;;;29.05;15.90;;;9.20;96.80;;;7.29;99.30;100562.75;5055027;28;20067;-88
2021/11/12 13:22:56;;;;;;;23.75;12.98;;;9.60;95.00;;;8.01;94.69;100513.50;5074713;28;20060;-88
2021/11/12 13:25:33;;;;;;;21.75;13.15;;;9.60;94.40;;;8.08;94.04;100516.41;5068694;28;20045;-86
2021/11/12 13:28:20;;;;;;;25.15;13.57;;;9.60;93.80;;;8.11;94.39;100511.50;5061304;28;20044;-86
2021/11/12 13:30:57;;;;;;;21.63;12.43;;;9.70;94.70;;;8.12;94.97;100499.63;5055263;28;20101;-85
2021/11/12 13:33:37;;;;;;;22.88;13.50;;;9.70;94.50;;;8.14;93.95;100503.00;5064015;28;20394;-85
2021/11/12 13:36:23;;;;;;;23.20;14.20;;;9.80;94.50;;;8.16;92.94;100494.72;5067149;28;20708;-86
2021/11/12 13:38:56;;;;;;;25.23;13.50;;;9.80;94.50;;;8.18;93.53;100488.09;5068505;28;20047;-87
2021/11/12 13:41:27;;;;;;;23.75;13.50;;;9.80;94.40;;;8.21;93.86;100487.75;5067403;28;20720;-87
2021/11/12 13:44:02;;;;;;;20.52;12.20;;;9.90;94.30;;;8.25;93.82;100482.00;5067467;28;20048;-87
2021/11/12 13:46:43;;;;;;;28.05;13.80;;;9.90;94.50;;;8.26;93.12;100483.69;5068814;28;20051;-88